North Island Naval Air Station-Halsey Field San Diego US
ICAO: KNZY
IATA: NZY
Category: Medium
Scheduled Services: No

Elevation: 26 ft
TransAlt. 18000 ft.

Airport Communications:
SOCAL APP/DEP:125.15
ATIS:31.78
CLNC DEL:128.4
GND:118
ARNG OPS:142.95
BASE OPS:35.55
PMSV METRO:34.235
TWR:135.1

KNZY Zoom In..

If you have problems with the map follow the link
https://www.worldairports.se/pages/airport.php?
ICAO=KNZY

Runways:

(A) RW 11 length 7500 ft width 200 ft
---- / hdg 108

(B) RW 18 length 8001 ft width 200 ft
---- / hdg 182

(C) RW 29 length 7500 ft width 200 ft
---- / hdg 288

(D) RW 36 length 8001 ft width 200 ft
---- / hdg 2

Location; KNZY
Day. 05 / Time. 22.52 Zulu
* Altimeter: 30.07
* Temperature: 18° c. 64.4°f.
* Wind from: 310° Speed 10 kn.
Dewpoint: 12° c.
Visibility: 10 Statute Miles.
Clouds: Few 2500 ft.
Clouds: Broken 25000 ft.

KNZY 052252Z 31010KT 10SM FEW025 BKN250 18/12 A3007 RMK AO2 SLP183 T01830122 $


Wind From 310°
Speed 10 kn.

 
 
jpsmedia worldairports.se 2019   terms of use